createdAt,value
2019-03-26T00:01:57.415Z,98202.11
2019-03-26T00:04:29.857Z,98206.80
2019-03-26T00:07:05.319Z,98211.61
2019-03-26T00:09:38.286Z,98210.13
2019-03-26T00:12:19.214Z,98216.13
2019-03-26T00:14:51.793Z,98217.27
2019-03-26T00:17:24.470Z,98214.02
2019-03-26T00:19:56.923Z,98218.20
2019-03-26T00:22:41.765Z,98216.27
2019-03-26T00:25:14.278Z,98213.95
2019-03-26T00:27:53.155Z,98210.78
2019-03-26T00:30:26.932Z,98205.62
2019-03-26T00:33:02.315Z,98207.41
2019-03-26T00:35:34.985Z,98213.19
2019-03-26T00:38:10.494Z,98210.97
2019-03-26T00:40:43.510Z,98218.50
2019-03-26T00:43:19.046Z,98219.92
2019-03-26T00:45:51.430Z,98218.23
2019-03-26T00:48:33.093Z,98216.94
2019-03-26T00:51:05.819Z,98215.16
2019-03-26T00:53:41.149Z,98218.64
2019-03-26T00:56:13.769Z,98217.63
2019-03-26T00:58:48.273Z,98214.48
2019-03-26T01:01:20.877Z,98213.58
2019-03-26T01:04:00.645Z,98222.03
2019-03-26T01:06:33.407Z,98225.50
2019-03-26T01:09:11.884Z,98224.22
2019-03-26T01:11:44.708Z,98217.06
2019-03-26T01:14:21.748Z,98210.30
2019-03-26T01:16:54.360Z,98202.83
2019-03-26T01:19:27.039Z,98208.17
2019-03-26T01:21:59.511Z,98207.45
2019-03-26T01:24:31.876Z,98206.88
2019-03-26T01:27:04.933Z,98210.33
2019-03-26T01:29:37.360Z,98197.22
2019-03-26T01:32:10.043Z,98200.00
2019-03-26T01:34:46.197Z,98197.39
2019-03-26T01:37:17.019Z,98197.98
2019-03-26T01:39:49.526Z,98200.97
2019-03-26T01:42:21.997Z,98193.98
2019-03-26T01:44:54.504Z,98200.03
2019-03-26T01:47:27.280Z,98194.01
2019-03-26T01:50:00.017Z,98200.19
2019-03-26T01:52:33.226Z,98201.83
2019-03-26T01:55:06.184Z,98212.41
2019-03-26T01:57:38.933Z,98214.08
2019-03-26T02:00:11.982Z,98215.75
2019-03-26T02:02:44.621Z,98197.00
2019-03-26T02:05:17.239Z,98201.61
2019-03-26T02:07:49.894Z,98211.34
2019-03-26T02:10:22.663Z,98210.05
2019-03-26T02:12:55.330Z,98223.81
2019-03-26T02:15:33.369Z,98217.16
2019-03-26T02:18:07.636Z,98205.78
2019-03-26T02:20:40.258Z,98216.30
2019-03-26T02:23:12.925Z,98231.83
2019-03-26T02:25:45.551Z,98231.33
2019-03-26T02:28:18.060Z,98225.02
2019-03-26T02:30:50.838Z,98224.83
2019-03-26T02:33:23.535Z,98232.93
2019-03-26T02:35:56.087Z,98237.42
2019-03-26T02:38:28.627Z,98246.97
2019-03-26T02:41:01.050Z,98250.95
2019-03-26T02:43:33.709Z,98249.42
2019-03-26T02:46:06.510Z,98255.63
2019-03-26T02:48:39.211Z,98257.16
2019-03-26T02:51:11.731Z,98269.02
2019-03-26T02:53:44.217Z,98271.89
2019-03-26T02:56:19.778Z,98271.52
2019-03-26T02:58:52.286Z,98280.72
2019-03-26T03:01:25.248Z,98285.98
2019-03-26T03:03:57.923Z,98295.52
2019-03-26T03:06:32.039Z,98317.95
2019-03-26T03:09:05.798Z,98318.20
2019-03-26T03:11:38.140Z,98331.86
2019-03-26T03:14:10.649Z,98337.06
2019-03-26T03:16:43.125Z,98336.24
2019-03-26T03:19:16.423Z,98339.28
2019-03-26T03:21:48.967Z,98330.78
2019-03-26T03:24:22.573Z,98330.86
2019-03-26T03:26:55.142Z,98324.42
2019-03-26T03:29:27.666Z,98322.87
2019-03-26T03:32:00.305Z,98326.44
2019-03-26T03:34:32.821Z,98325.42
2019-03-26T03:37:05.398Z,98325.82
2019-03-26T03:39:38.015Z,98334.00
2019-03-26T03:42:11.197Z,98337.73
2019-03-26T03:44:43.727Z,98334.92
2019-03-26T03:47:21.425Z,98338.46
2019-03-26T03:49:54.448Z,98332.98
2019-03-26T03:52:33.376Z,98326.97
2019-03-26T03:55:06.586Z,98338.02
2019-03-26T03:57:41.149Z,98342.70
2019-03-26T04:00:39.881Z,98337.02
2019-03-26T04:03:13.193Z,98335.47
2019-03-26T04:05:45.952Z,98337.13
2019-03-26T04:08:19.362Z,98353.02
2019-03-26T04:10:51.927Z,98367.20
2019-03-26T04:13:25.727Z,98367.65
2019-03-26T04:15:58.220Z,98362.28
2019-03-26T04:18:31.648Z,98369.89
2019-03-26T04:21:04.286Z,98378.81
2019-03-26T04:23:37.871Z,98374.60
2019-03-26T04:26:10.466Z,98398.15
2019-03-26T04:28:46.615Z,98392.78
2019-03-26T04:31:19.204Z,98390.64
2019-03-26T04:33:57.241Z,98393.09
2019-03-26T04:36:29.711Z,98398.00
2019-03-26T04:39:10.895Z,98378.50
2019-03-26T04:41:43.759Z,98378.14
2019-03-26T04:44:21.520Z,98379.44
2019-03-26T04:46:54.063Z,98376.95
2019-03-26T04:49:29.490Z,98378.14
2019-03-26T04:52:01.964Z,98380.91
2019-03-26T04:54:40.659Z,98388.25
2019-03-26T04:57:13.195Z,98386.67
2019-03-26T04:59:45.897Z,98369.79
2019-03-26T05:02:18.417Z,98383.23
2019-03-26T05:04:54.106Z,98388.27
2019-03-26T05:07:26.720Z,98393.26
2019-03-26T05:10:05.574Z,98395.05
2019-03-26T05:12:38.396Z,98394.38
2019-03-26T05:15:16.987Z,98393.47
2019-03-26T05:17:52.195Z,98389.57
2019-03-26T05:20:30.786Z,98385.95
2019-03-26T05:23:03.284Z,98395.50
2019-03-26T05:25:38.619Z,98399.19
2019-03-26T05:28:11.115Z,98402.73
2019-03-26T05:30:53.029Z,98403.57
2019-03-26T05:33:28.717Z,98409.20
2019-03-26T05:36:01.165Z,98399.67
2019-03-26T05:38:33.784Z,98409.30
2019-03-26T05:41:10.664Z,98419.58
2019-03-26T05:43:43.144Z,98423.31
2019-03-26T05:46:18.528Z,98414.58
2019-03-26T05:48:51.209Z,98415.28
2019-03-26T05:51:30.880Z,98409.35
2019-03-26T05:54:03.461Z,98410.09
2019-03-26T05:56:45.027Z,98416.34
2019-03-26T05:59:17.531Z,98412.23
2019-03-26T06:01:50.109Z,98414.47
2019-03-26T06:04:22.558Z,98417.56
2019-03-26T06:07:04.976Z,98423.67
2019-03-26T06:09:37.352Z,98416.29
2019-03-26T06:12:10.092Z,98404.89
2019-03-26T06:14:42.659Z,98420.58
2019-03-26T06:17:22.805Z,98412.67
2019-03-26T06:19:55.425Z,98414.70
2019-03-26T06:22:36.268Z,98414.24
2019-03-26T06:25:10.254Z,98425.55
2019-03-26T06:27:46.274Z,98426.74
2019-03-26T06:30:18.702Z,98427.39
2019-03-26T06:32:56.104Z,98426.41
2019-03-26T06:35:28.782Z,98432.27
2019-03-26T06:38:08.703Z,98434.30
2019-03-26T06:40:41.606Z,98436.33
2019-03-26T06:43:14.208Z,98453.52
2019-03-26T06:45:46.949Z,98450.91
2019-03-26T06:48:27.402Z,98453.57
2019-03-26T06:51:00.129Z,98467.94
2019-03-26T06:53:39.987Z,98468.56
2019-03-26T06:56:12.496Z,98479.19
2019-03-26T06:58:48.125Z,98484.28
2019-03-26T07:01:21.138Z,98485.14
2019-03-26T07:03:54.401Z,98493.05
2019-03-26T07:06:26.967Z,98493.83
2019-03-26T07:09:09.942Z,98496.75
2019-03-26T07:11:42.511Z,98492.85
2019-03-26T07:14:17.749Z,98498.59
2019-03-26T07:16:50.324Z,98510.39
2019-03-26T07:19:30.278Z,98505.19
2019-03-26T07:22:02.990Z,98513.98
2019-03-26T07:24:38.579Z,98522.10
2019-03-26T07:27:11.252Z,98523.14
2019-03-26T07:29:44.258Z,98520.89
2019-03-26T07:32:16.663Z,98532.09
2019-03-26T07:34:55.089Z,98533.69
2019-03-26T07:37:28.145Z,98547.66
2019-03-26T07:40:03.865Z,98537.13
2019-03-26T07:42:36.852Z,98548.95
2019-03-26T07:45:19.014Z,98532.20
2019-03-26T07:47:52.575Z,98538.89
2019-03-26T07:50:32.419Z,98541.96
2019-03-26T07:53:05.186Z,98547.72
2019-03-26T07:55:43.699Z,98534.23
2019-03-26T07:58:15.972Z,98539.95
2019-03-26T08:00:48.802Z,98546.27
2019-03-26T08:03:21.671Z,98553.30
2019-03-26T08:06:02.094Z,98553.26
2019-03-26T08:08:35.479Z,98546.28
2019-03-26T08:11:11.272Z,98548.92
2019-03-26T08:13:44.217Z,98535.63
2019-03-26T08:16:21.128Z,98545.05
2019-03-26T08:18:53.807Z,98543.98
2019-03-26T08:21:34.956Z,98552.41
2019-03-26T08:24:07.623Z,98546.05
2019-03-26T08:26:39.971Z,98554.59
2019-03-26T08:29:12.997Z,98559.53
2019-03-26T08:31:49.530Z,98561.33
2019-03-26T08:34:22.335Z,98555.42
2019-03-26T08:36:58.427Z,98563.86
2019-03-26T08:39:32.100Z,98564.41
2019-03-26T08:42:08.411Z,98567.51
2019-03-26T08:44:40.976Z,98564.09
2019-03-26T08:47:30.714Z,98565.48
2019-03-26T08:50:03.692Z,98572.00
2019-03-26T08:52:36.784Z,98557.34
2019-03-26T08:55:10.904Z,98581.69
2019-03-26T08:57:47.995Z,98571.83
2019-03-26T09:00:20.616Z,98571.90
2019-03-26T09:02:53.354Z,98562.92
2019-03-26T09:05:26.979Z,98563.33
2019-03-26T09:08:03.911Z,98571.81
2019-03-26T09:10:36.921Z,98576.26
2019-03-26T09:13:13.209Z,98584.66
2019-03-26T09:15:46.764Z,98573.96
2019-03-26T09:18:25.965Z,98578.48
2019-03-26T09:20:58.615Z,98572.20
2019-03-26T09:23:34.491Z,98572.64
2019-03-26T09:26:07.659Z,98574.87
2019-03-26T09:28:48.386Z,98579.16
2019-03-26T09:31:21.490Z,98581.66
2019-03-26T09:33:57.105Z,98593.70
2019-03-26T09:36:31.197Z,98596.95
2019-03-26T09:39:04.899Z,98604.06
2019-03-26T09:41:37.571Z,98594.93
2019-03-26T09:44:22.989Z,98585.64
2019-03-26T09:46:55.679Z,98591.98
2019-03-26T09:49:29.819Z,98603.53
2019-03-26T09:52:02.616Z,98600.96
2019-03-26T09:54:35.565Z,98604.44
2019-03-26T09:57:09.207Z,98603.31
2019-03-26T09:59:51.007Z,98598.34
2019-03-26T10:02:23.925Z,98591.95
2019-03-26T10:04:57.216Z,98611.03
2019-03-26T10:07:30.870Z,98609.91
2019-03-26T10:10:13.010Z,98605.46
2019-03-26T10:12:49.994Z,98608.21
2019-03-26T10:15:23.182Z,98614.24
2019-03-26T10:17:57.292Z,98622.22
2019-03-26T10:20:30.189Z,98604.22
2019-03-26T10:23:03.545Z,98599.92
2019-03-26T10:25:39.623Z,98611.61
2019-03-26T10:28:12.532Z,98608.91
2019-03-26T10:30:54.889Z,98612.23
2019-03-26T10:33:27.927Z,98609.18
2019-03-26T10:36:04.230Z,98613.77
2019-03-26T10:38:37.768Z,98619.44
2019-03-26T10:41:10.739Z,98602.50
2019-03-26T10:43:44.639Z,98615.97
2019-03-26T10:46:25.055Z,98618.00
2019-03-26T10:48:58.308Z,98616.11
2019-03-26T10:51:33.834Z,98613.03
2019-03-26T10:54:06.602Z,98630.16
2019-03-26T10:56:39.747Z,98632.17
2019-03-26T10:59:13.228Z,98616.63
2019-03-26T11:01:50.223Z,98614.55
2019-03-26T11:04:24.152Z,98617.03
2019-03-26T11:07:08.803Z,98624.70
2019-03-26T11:09:41.846Z,98620.54
2019-03-26T11:12:14.617Z,98620.17
2019-03-26T11:14:48.002Z,98608.98
2019-03-26T11:17:22.835Z,98622.92
2019-03-26T11:19:55.939Z,98607.06
2019-03-26T11:22:28.959Z,98607.42
2019-03-26T11:25:02.221Z,98606.16
2019-03-26T11:27:47.206Z,98611.28
2019-03-26T11:30:20.101Z,98601.47
2019-03-26T11:32:53.380Z,98599.72
2019-03-26T11:35:27.666Z,98614.42
2019-03-26T11:38:00.251Z,98600.55
2019-03-26T11:40:33.663Z,98587.34
2019-03-26T11:43:13.104Z,98590.63
2019-03-26T11:45:45.930Z,98596.61
2019-03-26T11:48:32.951Z,98598.73
2019-03-26T11:51:05.938Z,98603.63
2019-03-26T11:53:38.700Z,98625.48
2019-03-26T11:56:11.464Z,98610.03
2019-03-26T11:58:47.211Z,98615.52
2019-03-26T12:01:21.995Z,98612.72
2019-03-26T12:03:54.802Z,98601.77
2019-03-26T12:06:27.736Z,98615.22
2019-03-26T12:09:04.909Z,98601.56
2019-03-26T12:11:37.949Z,98608.66
2019-03-26T12:14:15.399Z,98618.92
2019-03-26T12:16:48.101Z,98609.67
2019-03-26T12:19:39.074Z,98616.52
2019-03-26T12:22:11.841Z,98601.03
2019-03-26T12:24:44.842Z,98615.89
2019-03-26T12:27:17.672Z,98623.53
2019-03-26T12:29:50.665Z,98606.27
2019-03-26T12:32:23.364Z,98606.95
2019-03-26T12:35:04.071Z,98615.37
2019-03-26T12:37:37.134Z,98604.73
2019-03-26T12:40:10.858Z,98617.09
2019-03-26T12:42:44.766Z,98619.98
2019-03-26T12:45:17.386Z,98621.86
2019-03-26T12:47:50.181Z,98624.60
2019-03-26T12:50:25.890Z,98620.31
2019-03-26T12:52:58.982Z,98636.94
2019-03-26T12:55:35.779Z,98642.70
2019-03-26T12:58:08.889Z,98637.40
2019-03-26T13:00:51.061Z,98644.34
2019-03-26T13:03:24.296Z,98641.95
2019-03-26T13:05:57.389Z,98634.56
2019-03-26T13:08:30.273Z,98648.00
2019-03-26T13:11:07.372Z,98655.20
2019-03-26T13:13:40.202Z,98649.95
2019-03-26T13:16:19.230Z,98649.83
2019-03-26T13:18:52.637Z,98645.39
2019-03-26T13:21:29.042Z,98640.88
2019-03-26T13:24:01.683Z,98651.57
2019-03-26T13:26:41.475Z,98647.75
2019-03-26T13:29:14.439Z,98629.42
2019-03-26T13:31:52.114Z,98650.11
2019-03-26T13:34:25.710Z,98643.61
2019-03-26T13:36:58.255Z,98645.88
2019-03-26T13:39:31.288Z,98645.15
2019-03-26T13:42:05.366Z,98658.77
2019-03-26T13:44:38.462Z,98654.13
2019-03-26T13:47:11.821Z,98657.50
2019-03-26T13:49:44.825Z,98668.71
2019-03-26T13:52:18.004Z,98667.42
2019-03-26T13:54:50.805Z,98670.02
2019-03-26T13:57:24.222Z,98664.20
2019-03-26T13:59:57.794Z,98667.36
2019-03-26T14:02:31.729Z,98678.59
2019-03-26T14:05:04.793Z,98666.86
2019-03-26T14:07:39.819Z,98672.78
2019-03-26T14:10:13.953Z,98673.45
2019-03-26T14:12:46.658Z,98665.30
2019-03-26T14:15:21.830Z,98666.32
2019-03-26T14:17:54.576Z,98673.70
2019-03-26T14:20:27.440Z,98665.05
2019-03-26T14:23:01.162Z,98676.77
2019-03-26T14:25:33.934Z,98671.06
2019-03-26T14:28:06.730Z,98674.17
2019-03-26T14:30:55.853Z,98657.77
2019-03-26T14:33:28.506Z,98678.09
2019-03-26T14:36:01.212Z,98679.99
2019-03-26T14:38:34.087Z,98674.14
2019-03-26T14:41:06.768Z,98687.17
2019-03-26T14:43:40.146Z,98683.54
2019-03-26T14:46:13.891Z,98673.06
2019-03-26T14:48:46.809Z,98680.80
2019-03-26T14:51:22.868Z,98688.30
2019-03-26T14:53:54.666Z,98670.22
2019-03-26T14:56:28.066Z,98671.66
2019-03-26T14:59:01.123Z,98672.47
2019-03-26T15:01:34.127Z,98670.03
2019-03-26T15:04:08.877Z,98678.71
2019-03-26T15:06:41.105Z,98680.16
2019-03-26T15:09:15.281Z,98680.94
2019-03-26T15:11:48.035Z,98680.41
2019-03-26T15:14:20.871Z,98691.39
2019-03-26T15:16:53.853Z,98687.58
2019-03-26T15:19:26.527Z,98685.69
2019-03-26T15:22:00.483Z,98695.17
2019-03-26T15:24:33.514Z,98695.28
2019-03-26T15:27:07.196Z,98707.34
2019-03-26T15:29:39.869Z,98698.88
2019-03-26T15:32:12.639Z,98701.44
2019-03-26T15:34:45.636Z,98698.73
2019-03-26T15:37:18.178Z,98700.08
2019-03-26T15:39:51.220Z,98703.14
2019-03-26T15:42:24.246Z,98710.53
2019-03-26T15:44:57.707Z,98725.30
2019-03-26T15:47:30.235Z,98733.16
2019-03-26T15:50:03.165Z,98730.85
2019-03-26T15:52:37.167Z,98736.46
2019-03-26T15:55:27.149Z,98739.67
2019-03-26T15:58:15.207Z,98743.11
2019-03-26T16:01:05.392Z,98740.97
2019-03-26T16:04:06.111Z,98751.56
2019-03-26T16:06:52.592Z,98754.99
2019-03-26T16:10:03.148Z,98751.87
2019-03-26T16:12:43.555Z,98751.78
2019-03-26T16:15:19.587Z,98756.98
2019-03-26T16:17:57.386Z,98757.41
2019-03-26T16:20:30.295Z,98762.64
2019-03-26T16:23:05.835Z,98760.34
2019-03-26T16:25:40.342Z,98767.94
2019-03-26T16:28:13.683Z,98767.48
2019-03-26T16:30:46.260Z,98773.43
2019-03-26T16:33:19.147Z,98768.31
2019-03-26T16:35:53.264Z,98773.96
2019-03-26T16:38:26.193Z,98774.14
2019-03-26T16:41:00.580Z,98780.54
2019-03-26T16:43:33.322Z,98784.06
2019-03-26T16:46:06.044Z,98788.55
2019-03-26T16:48:39.139Z,98793.66
2019-03-26T16:51:12.268Z,98783.91
2019-03-26T16:53:44.993Z,98788.94
2019-03-26T16:56:17.945Z,98792.25
2019-03-26T16:58:50.841Z,98792.80
2019-03-26T17:01:23.916Z,98798.34
2019-03-26T17:03:57.366Z,98795.21
2019-03-26T17:06:30.141Z,98797.06
2019-03-26T17:09:17.705Z,98804.46
2019-03-26T17:12:02.572Z,98798.31
2019-03-26T17:14:24.946Z,98804.42
2019-03-26T17:16:58.467Z,98800.09
2019-03-26T17:19:32.686Z,98808.09
2019-03-26T17:22:05.679Z,98804.05
2019-03-26T17:24:38.337Z,98813.31
2019-03-26T17:27:11.130Z,98810.85
2019-03-26T17:29:44.221Z,98802.83
2019-03-26T17:32:17.451Z,98802.72
2019-03-26T17:34:50.090Z,98814.30
2019-03-26T17:37:23.183Z,98806.89
2019-03-26T17:39:56.333Z,98807.97
2019-03-26T17:42:29.120Z,98814.87
2019-03-26T17:45:01.791Z,98815.33
2019-03-26T17:47:34.994Z,98816.89
2019-03-26T17:50:08.811Z,98816.12
2019-03-26T17:52:41.410Z,98822.31
2019-03-26T17:55:14.134Z,98814.14
2019-03-26T17:57:47.901Z,98815.97
2019-03-26T18:00:35.663Z,98805.72
2019-03-26T18:03:08.806Z,98811.67
2019-03-26T18:05:41.670Z,98824.12
2019-03-26T18:08:14.355Z,98823.96
2019-03-26T18:10:47.992Z,98835.02
2019-03-26T18:13:20.874Z,98831.67
2019-03-26T18:15:53.759Z,98838.25
2019-03-26T18:18:26.362Z,98851.19
2019-03-26T18:20:59.933Z,98846.84
2019-03-26T18:23:32.773Z,98850.23
2019-03-26T18:26:05.443Z,98846.34
2019-03-26T18:28:38.484Z,98848.92
2019-03-26T18:31:11.492Z,98844.46
2019-03-26T18:33:44.327Z,98834.54
2019-03-26T18:36:17.414Z,98852.98
2019-03-26T18:38:51.005Z,98859.66
2019-03-26T18:41:24.680Z,98852.13
2019-03-26T18:44:01.077Z,98856.77
2019-03-26T18:46:34.692Z,98856.88
2019-03-26T18:49:07.062Z,98867.30
2019-03-26T18:51:40.626Z,98878.33
2019-03-26T18:54:20.294Z,98881.87
2019-03-26T18:56:53.088Z,98881.31
2019-03-26T18:59:31.940Z,98890.05
2019-03-26T19:02:04.776Z,98891.82
2019-03-26T19:04:41.638Z,98895.79
2019-03-26T19:07:14.625Z,98905.47
2019-03-26T19:09:47.393Z,98907.68
2019-03-26T19:12:20.092Z,98924.22
2019-03-26T19:14:52.628Z,98916.52
2019-03-26T19:17:25.990Z,98923.21
2019-03-26T19:19:58.890Z,98913.73
2019-03-26T19:22:33.495Z,98929.06
2019-03-26T19:25:06.289Z,98929.45
2019-03-26T19:27:39.252Z,98926.76
2019-03-26T19:30:12.985Z,98929.72
2019-03-26T19:32:45.919Z,98930.66
2019-03-26T19:35:19.291Z,98934.27
2019-03-26T19:37:52.200Z,98933.99
2019-03-26T19:40:25.176Z,98931.87
2019-03-26T19:43:10.083Z,98930.64
2019-03-26T19:45:35.199Z,98943.53
2019-03-26T19:48:10.509Z,98948.38
2019-03-26T19:50:44.300Z,98951.05
2019-03-26T19:53:17.489Z,98942.49
2019-03-26T19:55:50.905Z,98942.84
2019-03-26T19:58:24.414Z,98950.36
2019-03-26T20:00:57.797Z,98959.02
2019-03-26T20:03:31.452Z,98957.06
2019-03-26T20:06:13.553Z,98958.72
2019-03-26T20:08:42.900Z,98959.21
2019-03-26T20:11:16.292Z,98966.73
2019-03-26T20:13:50.105Z,98973.03
2019-03-26T20:16:22.801Z,98969.39
2019-03-26T20:18:57.058Z,98971.53
2019-03-26T20:21:35.627Z,98969.67
2019-03-26T20:24:09.300Z,98974.33
2019-03-26T20:26:43.675Z,98970.63
2019-03-26T20:29:17.345Z,98976.18
2019-03-26T20:31:51.831Z,98977.29
2019-03-26T20:34:25.671Z,98969.12
2019-03-26T20:36:58.550Z,98969.23
2019-03-26T20:39:35.554Z,98972.28
2019-03-26T20:42:09.142Z,98973.44
2019-03-26T20:44:42.249Z,98975.78
2019-03-26T20:47:15.466Z,98978.34
2019-03-26T20:49:55.292Z,98994.14
2019-03-26T20:52:28.699Z,98990.70
2019-03-26T20:55:06.441Z,98996.86
2019-03-26T20:57:40.889Z,99001.20
2019-03-26T21:00:16.797Z,98999.14
2019-03-26T21:02:51.683Z,98996.15
2019-03-26T21:05:27.713Z,98996.70
2019-03-26T21:08:01.191Z,99003.64
2019-03-26T21:10:37.699Z,99005.90
2019-03-26T21:13:19.140Z,99007.45
2019-03-26T21:15:57.430Z,99016.46
2019-03-26T21:18:35.958Z,99019.06
2019-03-26T21:21:13.884Z,99011.00
2019-03-26T21:23:47.955Z,99007.31
2019-03-26T21:26:21.179Z,99011.88
2019-03-26T21:28:54.556Z,99020.16
2019-03-26T21:31:30.652Z,99025.27
2019-03-26T21:34:04.976Z,99021.34
2019-03-26T21:36:38.597Z,99035.77
2019-03-26T21:39:11.836Z,99034.34
2019-03-26T21:41:45.614Z,99030.44
2019-03-26T21:44:18.933Z,99039.75
2019-03-26T21:46:52.604Z,99032.41
2019-03-26T21:49:26.828Z,99039.69
2019-03-26T21:52:00.316Z,99039.03
2019-03-26T21:54:34.018Z,99043.70
2019-03-26T21:57:10.477Z,99051.05
2019-03-26T21:59:43.829Z,99046.83
2019-03-26T22:02:22.895Z,99041.47
2019-03-26T22:04:55.974Z,99043.16
2019-03-26T22:07:29.424Z,99044.25
2019-03-26T22:10:02.391Z,99040.52
2019-03-26T22:12:38.470Z,99036.84
2019-03-26T22:15:11.726Z,99044.86
2019-03-26T22:17:47.899Z,99044.81
2019-03-26T22:20:20.689Z,99037.80
2019-03-26T22:23:00.466Z,99050.02
2019-03-26T22:25:33.951Z,99052.08
2019-03-26T22:28:15.394Z,99052.39
2019-03-26T22:30:48.689Z,99055.04
2019-03-26T22:33:24.618Z,99058.48
2019-03-26T22:35:57.245Z,99065.46
2019-03-26T22:38:30.197Z,99068.42
2019-03-26T22:41:04.696Z,99069.97
2019-03-26T22:43:37.944Z,99070.42
2019-03-26T22:46:10.564Z,99066.61
2019-03-26T22:48:50.479Z,99068.95
2019-03-26T22:51:23.349Z,99066.58
2019-03-26T22:53:58.942Z,99071.31
2019-03-26T22:56:31.807Z,99078.83
2019-03-26T22:59:08.584Z,99073.63
2019-03-26T23:01:41.218Z,99076.36
2019-03-26T23:04:19.873Z,99079.41
2019-03-26T23:06:51.071Z,99088.34
2019-03-26T23:09:31.590Z,99083.38
2019-03-26T23:12:04.285Z,99091.55
2019-03-26T23:14:45.411Z,99085.83
2019-03-26T23:17:14.469Z,99093.01
2019-03-26T23:19:57.091Z,99097.88
2019-03-26T23:22:30.168Z,99093.37
2019-03-26T23:25:03.271Z,99100.28
2019-03-26T23:27:35.825Z,99100.50
2019-03-26T23:30:09.784Z,99099.49
2019-03-26T23:32:43.043Z,99096.50
2019-03-26T23:35:16.375Z,99097.33
2019-03-26T23:37:50.087Z,99096.13
2019-03-26T23:40:22.766Z,99088.61
2019-03-26T23:42:55.323Z,99095.81
2019-03-26T23:45:27.915Z,99092.68
2019-03-26T23:48:00.510Z,99090.85
2019-03-26T23:50:33.144Z,99100.23
2019-03-26T23:53:05.717Z,99100.28
2019-03-26T23:55:39.140Z,99095.14
2019-03-26T23:58:12.559Z,99100.34
